createdAt,value
2019-04-07T13:25:04.712Z,28.54
2019-04-07T13:26:03.523Z,28.42
2019-04-07T13:27:05.843Z,28.59
2019-04-07T13:28:04.187Z,29.85
2019-04-07T13:29:04.180Z,30.15
2019-04-07T13:30:04.035Z,29.95
2019-04-07T13:31:03.341Z,29.85
2019-04-07T13:32:03.410Z,30.05
2019-04-07T13:33:04.451Z,29.96
2019-04-07T13:34:04.203Z,30.35
2019-04-07T13:35:03.198Z,29.96
2019-04-07T13:36:03.166Z,29.77
2019-04-07T13:37:03.443Z,30.45
2019-04-07T13:38:03.107Z,30.44
2019-04-07T13:39:03.067Z,30.26
2019-04-07T13:40:03.915Z,29.98
2019-04-07T13:41:03.075Z,29.90
2019-04-07T13:42:03.353Z,30.08
2019-04-07T13:43:04.347Z,29.98
2019-04-07T13:44:07.220Z,30.37
2019-04-07T13:45:04.273Z,30.47
2019-04-07T13:46:03.731Z,30.94
2019-04-07T13:47:06.234Z,30.62
2019-04-07T13:48:05.434Z,31.31
2019-04-07T13:49:02.927Z,31.70
2019-04-07T13:50:02.768Z,31.72
2019-04-07T13:51:03.208Z,31.05
2019-04-07T13:52:02.597Z,31.26
2019-04-07T13:53:02.964Z,30.49
2019-04-07T13:54:03.265Z,29.83
2019-04-07T13:55:05.949Z,29.16
2019-04-07T13:56:02.450Z,29.06
2019-04-07T13:57:03.293Z,28.28
2019-04-07T13:58:02.618Z,27.61
2019-04-07T13:59:06.636Z,28.18
2019-04-07T14:00:02.321Z,27.20
2019-04-07T14:01:03.047Z,27.59
2019-04-07T14:02:03.044Z,27.78
2019-04-07T14:03:02.207Z,27.50
2019-04-07T14:04:02.403Z,27.80
2019-04-07T14:05:05.278Z,27.31
2019-04-07T14:06:02.358Z,27.42
2019-04-07T14:07:03.601Z,27.33
2019-04-07T14:08:02.261Z,26.83
2019-04-07T14:09:02.518Z,27.81
2019-04-07T14:10:05.001Z,26.95
2019-04-07T14:11:02.519Z,26.75
2019-04-07T14:12:09.030Z,26.27
2019-04-07T14:13:05.355Z,26.26
2019-04-07T14:14:01.832Z,25.59
2019-04-07T14:15:01.797Z,25.59
2019-04-07T14:16:01.765Z,25.38
2019-04-07T14:17:01.729Z,26.04
2019-04-07T14:18:01.689Z,26.12
2019-04-07T14:19:02.462Z,27.76
2019-04-07T14:20:01.622Z,28.32
2019-04-07T14:21:01.589Z,29.35
2019-04-07T14:22:02.175Z,30.58
2019-04-07T14:23:02.131Z,30.83
2019-04-07T14:24:01.657Z,29.47
2019-04-07T14:25:01.618Z,28.71
2019-04-07T14:26:01.413Z,28.63
2019-04-07T14:27:02.151Z,28.33
2019-04-07T14:28:01.344Z,28.83
2019-04-07T14:29:02.025Z,28.25
2019-04-07T14:30:01.498Z,28.65
2019-04-07T14:31:01.356Z,27.56
2019-04-07T14:32:02.002Z,28.26
2019-04-07T14:33:01.211Z,27.47
2019-04-07T14:34:01.126Z,28.16
2019-04-07T14:35:01.081Z,27.38
2019-04-07T14:36:01.046Z,27.77
2019-04-07T14:37:01.193Z,27.38
2019-04-07T14:38:00.972Z,28.67
2019-04-07T14:39:00.937Z,28.47
2019-04-07T14:40:01.035Z,27.59
2019-04-07T14:41:01.140Z,28.18
2019-04-07T14:42:04.553Z,27.58
2019-04-07T14:43:01.176Z,27.87
2019-04-07T14:44:00.761Z,27.87
2019-04-07T14:45:01.296Z,28.26
2019-04-07T14:46:01.221Z,27.87
2019-04-07T14:47:01.194Z,27.97
2019-04-07T14:48:01.010Z,28.85
2019-04-07T14:49:01.132Z,29.04
2019-04-07T14:50:00.634Z,28.65
2019-04-07T14:51:01.233Z,27.19
2019-04-07T14:52:01.350Z,28.15
2019-04-07T14:53:00.753Z,28.71
2019-04-07T14:54:01.083Z,29.85
2019-04-07T14:55:01.392Z,30.55
2019-04-07T14:56:04.611Z,30.35
2019-04-07T14:57:01.014Z,29.96
2019-04-07T14:58:00.270Z,30.47
2019-04-07T14:59:00.660Z,30.65
2019-04-07T15:00:01.896Z,29.86
2019-04-07T15:01:03.451Z,29.96
2019-04-07T15:02:01.753Z,30.44
2019-04-07T15:03:00.905Z,30.44
2019-04-07T15:04:01.034Z,30.42
2019-04-07T15:05:00.023Z,30.99
2019-04-07T15:05:59.989Z,31.74
2019-04-07T15:07:03.848Z,32.49
2019-04-07T15:08:00.156Z,32.94
2019-04-07T15:09:02.478Z,33.81
2019-04-07T15:09:59.917Z,34.50
2019-04-07T15:10:59.808Z,34.58
2019-04-07T15:11:59.897Z,34.46
2019-04-07T15:12:59.997Z,34.95
2019-04-07T15:14:00.709Z,34.95
2019-04-07T15:15:02.096Z,35.14
2019-04-07T15:16:00.328Z,34.66
2019-04-07T15:17:00.333Z,35.14
2019-04-07T15:17:59.844Z,35.24
2019-04-07T15:18:59.515Z,35.63
2019-04-07T15:19:59.628Z,35.92
2019-04-07T15:20:59.486Z,35.51
2019-04-07T15:22:01.924Z,36.38
2019-04-07T15:23:00.554Z,36.36
2019-04-07T15:24:04.048Z,35.88
2019-04-07T15:25:00.130Z,36.36
2019-04-07T15:26:00.099Z,36.66
2019-04-07T15:26:59.358Z,37.13
2019-04-07T15:28:00.419Z,36.35
2019-04-07T15:29:02.427Z,36.76
2019-04-07T15:30:00.552Z,37.43
2019-04-07T15:30:59.063Z,37.32
2019-04-07T15:31:59.793Z,37.41
2019-04-07T15:33:02.365Z,37.32
2019-04-07T15:34:00.854Z,37.51
2019-04-07T15:34:59.026Z,37.13
2019-04-07T15:35:59.026Z,37.23
2019-04-07T15:36:59.116Z,37.21
2019-04-07T15:37:59.184Z,38.27
2019-04-07T15:38:59.560Z,38.15
2019-04-07T15:40:00.948Z,37.77
2019-04-07T15:40:59.935Z,39.03
2019-04-07T15:41:58.641Z,39.59
2019-04-07T15:43:01.489Z,39.39
2019-04-07T15:43:58.579Z,39.59
2019-04-07T15:44:59.052Z,38.91
2019-04-07T15:45:58.484Z,39.39
2019-04-07T15:46:58.445Z,39.67
2019-04-07T15:48:00.524Z,40.36
2019-04-07T15:48:58.370Z,39.67
2019-04-07T15:49:59.471Z,39.88
2019-04-07T15:51:02.557Z,41.52
2019-04-07T15:51:58.251Z,40.84
2019-04-07T15:52:58.447Z,40.17
2019-04-07T15:53:58.636Z,40.17
2019-04-07T15:54:58.470Z,40.07
2019-04-07T15:56:02.935Z,40.05
2019-04-07T15:56:59.156Z,39.67
2019-04-07T15:57:58.779Z,39.86
2019-04-07T15:59:00.713Z,40.25
2019-04-07T16:00:00.125Z,40.34
2019-04-07T16:00:57.892Z,41.02
2019-04-07T16:01:57.853Z,40.34
2019-04-07T16:02:58.878Z,40.25
2019-04-07T16:03:57.778Z,40.53
2019-04-07T16:05:01.332Z,39.74
2019-04-07T16:05:58.031Z,40.23
2019-04-07T16:06:57.660Z,41.02
2019-04-07T16:07:57.822Z,41.19
2019-04-07T16:09:00.778Z,40.71
2019-04-07T16:09:58.168Z,41.48
2019-04-07T16:10:57.648Z,40.42
2019-04-07T16:11:59.112Z,40.52
2019-04-07T16:12:59.326Z,41.48
2019-04-07T16:13:57.371Z,40.90
2019-04-07T16:14:57.871Z,41.00
2019-04-07T16:15:57.571Z,40.71
2019-04-07T16:16:59.576Z,41.48
2019-04-07T16:17:57.208Z,40.61
2019-04-07T16:18:57.182Z,40.81
2019-04-07T16:19:57.129Z,40.42
2019-04-07T16:20:57.452Z,40.15
2019-04-07T16:21:57.272Z,40.34
2019-04-07T16:22:57.543Z,40.05
2019-04-07T16:23:57.252Z,39.09
2019-04-07T16:24:57.266Z,39.18
2019-04-07T16:25:58.423Z,39.76
2019-04-07T16:26:58.970Z,40.34
2019-04-07T16:27:56.809Z,40.03
2019-04-07T16:28:57.353Z,40.03
2019-04-07T16:29:56.962Z,40.32
2019-04-07T16:30:56.676Z,40.71
2019-04-07T16:31:58.588Z,41.00
2019-04-07T16:32:59.717Z,40.42
2019-04-07T16:33:56.556Z,40.32
2019-04-07T16:34:57.268Z,40.32
2019-04-07T16:35:56.634Z,40.81
2019-04-07T16:36:59.378Z,40.81
2019-04-07T16:37:58.377Z,40.30
2019-04-07T16:38:56.535Z,41.46
2019-04-07T16:39:56.847Z,40.98
2019-04-07T16:40:56.266Z,41.93
2019-04-07T16:41:56.229Z,42.02
2019-04-07T16:43:07.898Z,41.54
2019-04-07T16:43:56.142Z,42.39
2019-04-07T16:44:56.100Z,42.87
2019-04-07T16:45:56.061Z,42.19
2019-04-07T16:46:58.561Z,43.06
2019-04-07T16:47:56.555Z,42.77
2019-04-07T16:48:55.934Z,43.24
2019-04-07T16:49:55.921Z,43.33
2019-04-07T16:50:55.850Z,43.24
2019-04-07T16:51:58.310Z,43.72
2019-04-07T16:52:55.769Z,44.18
2019-04-07T16:53:56.376Z,44.27
2019-04-07T16:54:56.032Z,44.37
2019-04-07T16:55:55.955Z,44.18
2019-04-07T16:56:57.532Z,44.25
2019-04-07T16:57:55.557Z,44.25
2019-04-07T16:58:56.542Z,44.73
2019-04-07T16:59:56.327Z,44.45
2019-04-07T17:00:55.989Z,44.54
2019-04-07T17:01:55.392Z,44.54
2019-04-07T17:02:55.808Z,45.31
2019-04-07T17:03:55.427Z,45.51
2019-04-07T17:04:55.814Z,45.12
2019-04-07T17:05:58.733Z,44.93
2019-04-07T17:07:02.304Z,45.41
2019-04-07T17:07:56.876Z,46.08
2019-04-07T17:08:55.097Z,45.70
2019-04-07T17:09:57.473Z,45.12
2019-04-07T17:10:55.900Z,44.52
2019-04-07T17:11:54.966Z,46.28
2019-04-07T17:12:54.928Z,45.10
2019-04-07T17:13:55.815Z,45.48
2019-04-07T17:14:54.841Z,46.35
2019-04-07T17:15:55.250Z,45.58
2019-04-07T17:16:54.753Z,45.00
2019-04-07T17:17:54.722Z,46.06
2019-04-07T17:18:56.204Z,46.64
2019-04-07T17:19:57.485Z,46.15
2019-04-07T17:20:55.250Z,45.77
2019-04-07T17:21:55.450Z,46.15
2019-04-07T17:22:54.502Z,46.04
2019-04-07T17:23:55.770Z,45.75
2019-04-07T17:24:58.312Z,45.94
2019-04-07T17:25:54.745Z,46.71
2019-04-07T17:26:55.018Z,46.81
2019-04-07T17:27:55.751Z,47.87
2019-04-07T17:28:56.694Z,48.25
2019-04-07T17:29:55.303Z,48.35
2019-04-07T17:30:57.322Z,47.97
2019-04-07T17:31:54.377Z,47.27
2019-04-07T17:34:09.825Z,47.56
2019-04-07T17:35:07.278Z,47.75
2019-04-07T17:36:06.398Z,47.65
2019-04-07T17:37:07.189Z,48.03
2019-04-07T17:38:10.680Z,48.13
2019-04-07T17:39:08.508Z,49.29
2019-04-07T17:40:08.683Z,49.68
2019-04-07T17:41:08.284Z,49.27
2019-04-07T17:42:06.137Z,49.58
2019-04-07T17:43:06.094Z,49.87
2019-04-07T17:44:06.050Z,50.42
2019-04-07T17:45:06.007Z,49.46
2019-04-07T17:46:06.322Z,48.97
2019-04-07T17:47:05.950Z,48.97
2019-04-07T17:48:07.126Z,48.97
2019-04-07T17:49:06.606Z,49.07
2019-04-07T17:50:05.791Z,49.55
2019-04-07T17:51:07.334Z,49.65
2019-04-07T17:52:08.037Z,49.17
2019-04-07T17:53:06.472Z,50.13
2019-04-07T17:54:05.618Z,49.55
2019-04-07T17:55:06.339Z,50.10
2019-04-07T17:56:05.563Z,49.91
2019-04-07T17:57:06.711Z,49.82
2019-04-07T17:58:08.722Z,50.23
2019-04-07T17:59:08.737Z,50.97
2019-04-07T18:00:05.861Z,50.97
2019-04-07T18:01:06.229Z,50.87
2019-04-07T18:02:05.269Z,50.87
2019-04-07T18:03:08.898Z,51.17
2019-04-07T18:04:05.186Z,50.87
2019-04-07T18:05:05.141Z,50.68
2019-04-07T18:06:05.857Z,51.45
2019-04-07T18:07:06.165Z,51.45
2019-04-07T18:09:33.020Z,51.84
2019-04-07T18:10:32.580Z,51.74
2019-04-07T18:11:32.860Z,51.91
2019-04-07T18:12:32.398Z,52.12
2019-04-07T18:13:43.838Z,52.48
2019-04-07T18:14:33.049Z,51.81
2019-04-07T18:15:32.175Z,51.72
2019-04-07T18:16:32.136Z,52.00
2019-04-07T18:17:32.230Z,52.39
2019-04-07T18:18:32.054Z,53.16
2019-04-07T18:19:33.852Z,52.39
2019-04-07T18:20:32.722Z,52.77
2019-04-07T18:21:31.921Z,53.25
2019-04-07T18:22:31.884Z,53.54
2019-04-07T18:23:34.627Z,53.74
2019-04-07T18:24:31.847Z,53.54
2019-04-07T18:25:33.305Z,53.64
2019-04-07T18:26:31.850Z,53.54
2019-04-07T18:27:31.856Z,53.45
2019-04-07T18:28:32.535Z,53.64
2019-04-07T18:29:32.222Z,54.69
2019-04-07T18:30:33.397Z,53.70
2019-04-07T18:31:35.237Z,54.86
2019-04-07T18:32:31.914Z,54.57
2019-04-07T18:33:31.403Z,54.47
2019-04-07T18:34:32.661Z,54.67
2019-04-07T18:35:33.041Z,54.77
2019-04-07T18:36:34.734Z,55.53
2019-04-07T18:37:31.235Z,55.24
2019-04-07T18:38:31.193Z,55.91
2019-04-07T18:39:31.149Z,56.59
2019-04-07T18:40:31.815Z,56.21
2019-04-07T18:41:34.760Z,56.88
2019-04-07T18:42:31.026Z,57.07
2019-04-07T18:43:31.178Z,56.68
2019-04-07T18:44:35.364Z,57.07
2019-04-07T18:45:31.883Z,57.26
2019-04-07T18:46:31.425Z,57.65
2019-04-07T18:47:31.521Z,57.36
2019-04-07T18:48:30.774Z,57.75
2019-04-07T18:49:32.067Z,57.75
2019-04-07T18:50:30.777Z,58.58
2019-04-07T18:51:31.445Z,58.29
2019-04-07T18:52:30.596Z,58.87
2019-04-07T18:53:30.787Z,58.48
2019-04-07T18:54:31.093Z,58.67
2019-04-07T18:55:30.472Z,59.25
2019-04-07T18:56:30.495Z,59.16
2019-04-07T18:57:30.590Z,59.06
2019-04-07T18:58:31.199Z,59.16
2019-04-07T18:59:31.272Z,59.34
2019-04-07T19:00:32.340Z,59.83
2019-04-07T19:01:30.217Z,59.92
2019-04-07T19:02:31.752Z,59.64
2019-04-07T19:03:30.135Z,59.73
2019-04-07T19:04:30.512Z,60.60
2019-04-07T19:05:32.656Z,59.92
2019-04-07T19:06:30.179Z,60.11
2019-04-07T19:07:30.448Z,60.21
2019-04-07T19:08:29.915Z,60.69
2019-04-07T19:09:31.293Z,60.60
2019-04-07T19:10:29.838Z,61.17
2019-04-07T19:11:30.812Z,61.17
2019-04-07T19:12:30.094Z,61.81
2019-04-07T19:13:30.031Z,61.33
2019-04-07T19:14:41.210Z,60.95
2019-04-07T19:15:29.873Z,61.52
2019-04-07T19:16:29.941Z,60.95
2019-04-07T19:17:29.712Z,60.85
2019-04-07T19:18:29.494Z,60.95
2019-04-07T19:19:29.751Z,60.85
2019-04-07T19:20:29.399Z,61.72
2019-04-07T19:21:29.360Z,61.81
2019-04-07T19:22:30.215Z,60.95
2019-04-07T19:23:30.244Z,60.75
2019-04-07T19:24:32.217Z,62.10
2019-04-07T19:25:29.322Z,62.10
2019-04-07T19:26:29.201Z,61.62
2019-04-07T19:27:31.287Z,62.01
2019-04-07T19:28:29.506Z,62.29
2019-04-07T19:29:29.013Z,62.87
2019-04-07T19:30:29.384Z,62.58
2019-04-07T19:31:28.929Z,62.96
2019-04-07T19:32:29.197Z,63.06
2019-04-07T19:33:28.860Z,63.16
2019-04-07T19:34:31.433Z,63.45
2019-04-07T19:35:29.720Z,63.83
2019-04-07T19:36:29.359Z,64.18
2019-04-07T19:37:28.679Z,64.66
2019-04-07T19:38:29.398Z,64.47
2019-04-07T19:39:29.458Z,64.47
2019-04-07T19:40:29.098Z,64.76
2019-04-07T19:41:31.084Z,64.76
2019-04-07T19:42:28.575Z,64.85
2019-04-07T19:43:30.807Z,64.85
2019-04-07T19:44:38.214Z,65.05
2019-04-07T19:45:28.328Z,65.43
2019-04-07T19:46:30.215Z,66.00
2019-04-07T19:47:31.279Z,66.00
2019-04-07T19:48:28.829Z,65.91
2019-04-07T19:49:28.158Z,66.55
2019-04-07T19:50:28.634Z,66.83
2019-04-07T19:51:29.274Z,67.02
2019-04-07T19:52:28.028Z,66.93
2019-04-07T19:53:31.043Z,67.69
2019-04-07T19:54:27.943Z,67.79
2019-04-07T19:55:28.310Z,68.08
2019-04-07T19:56:27.853Z,68.37
2019-04-07T19:57:27.925Z,68.18
2019-04-07T19:58:32.746Z,68.46
2019-04-07T19:59:28.105Z,68.56
2019-04-07T20:00:28.916Z,68.75
2019-04-07T20:01:29.186Z,68.46
2019-04-07T20:02:30.404Z,68.43
2019-04-07T20:03:28.392Z,68.14
2019-04-07T20:04:28.388Z,68.14
2019-04-07T20:05:27.463Z,68.91
2019-04-07T20:06:27.935Z,69.10
2019-04-07T20:07:30.173Z,68.72
2019-04-07T20:08:27.332Z,68.91
2019-04-07T20:09:27.828Z,69.68
2019-04-07T20:10:28.164Z,68.43
2019-04-07T20:11:30.413Z,68.91
2019-04-07T20:12:27.211Z,68.05
2019-04-07T20:13:27.118Z,68.91
2019-04-07T20:14:27.072Z,68.81
2019-04-07T20:15:29.611Z,69.29
2019-04-07T20:16:26.994Z,68.91
2019-04-07T20:17:29.436Z,68.91
2019-04-07T20:18:29.498Z,68.62
2019-04-07T20:19:28.964Z,69.29
2019-04-07T20:20:26.813Z,68.91
2019-04-07T20:21:35.800Z,68.81
2019-04-07T20:22:27.196Z,68.91
2019-04-07T20:23:29.629Z,68.78
2019-04-07T20:24:26.639Z,69.26
2019-04-07T20:25:26.788Z,68.87
2019-04-07T20:26:26.548Z,69.35
2019-04-07T20:27:28.480Z,69.54
2019-04-07T20:28:30.241Z,69.64
2019-04-07T20:29:26.414Z,69.74
2019-04-07T20:30:28.445Z,69.45
2019-04-07T20:31:26.325Z,69.54
2019-04-07T20:32:26.313Z,70.03
2019-04-07T20:33:29.870Z,69.64
2019-04-07T20:34:26.197Z,70.03
2019-04-07T20:35:27.337Z,69.64
2019-04-07T20:36:26.865Z,70.03
2019-04-07T20:37:26.650Z,69.54
2019-04-07T20:38:27.661Z,70.60
2019-04-07T20:39:27.401Z,70.31
2019-04-07T20:40:25.927Z,70.89
2019-04-07T20:41:25.877Z,71.04
2019-04-07T20:42:26.851Z,70.66
2019-04-07T20:43:25.804Z,71.33
2019-04-07T20:44:29.562Z,70.85
2019-04-07T20:45:26.591Z,71.52
2019-04-07T20:46:26.254Z,71.04
2019-04-07T20:47:26.419Z,71.04
2019-04-07T20:48:25.747Z,71.33
2019-04-07T20:49:26.420Z,71.04
2019-04-07T20:50:25.473Z,71.14
2019-04-07T20:51:25.439Z,71.62
2019-04-07T20:52:26.605Z,71.71
2019-04-07T20:53:29.037Z,71.81
2019-04-07T20:54:25.902Z,71.62
2019-04-07T20:55:25.255Z,72.09
2019-04-07T20:56:25.204Z,72.19
2019-04-07T20:57:26.414Z,71.91
2019-04-07T20:58:26.875Z,72.29
2019-04-07T20:59:26.873Z,73.30
2019-04-07T21:00:25.023Z,73.11
2019-04-07T21:01:25.529Z,73.69
2019-04-07T21:02:25.092Z,73.88
2019-04-07T21:03:26.502Z,74.07
2019-04-07T21:04:25.737Z,74.07
2019-04-07T21:05:27.045Z,74.45
2019-04-07T21:06:27.509Z,74.45
2019-04-07T21:07:24.884Z,74.55
2019-04-07T21:08:25.953Z,74.45
2019-04-07T21:09:25.596Z,74.16
2019-04-07T21:10:24.564Z,74.74
2019-04-07T21:11:24.520Z,75.27
2019-04-07T21:12:25.237Z,74.70
2019-04-07T21:13:24.839Z,74.99
2019-04-07T21:14:24.383Z,75.09
2019-04-07T21:15:26.808Z,75.76
2019-04-07T21:16:28.024Z,75.76
2019-04-07T21:17:24.245Z,75.76
2019-04-07T21:18:24.203Z,75.66
2019-04-07T21:19:25.593Z,75.37
2019-04-07T21:20:24.110Z,75.37
2019-04-07T21:21:24.067Z,75.95
2019-04-07T21:22:24.830Z,75.85
2019-04-07T21:23:23.974Z,76.04
2019-04-07T21:24:23.932Z,75.95
2019-04-07T21:25:25.230Z,76.04
2019-04-07T21:26:27.203Z,76.42
2019-04-07T21:27:25.620Z,76.39
2019-04-07T21:28:24.567Z,76.39
2019-04-07T21:29:23.726Z,76.20
2019-04-07T21:30:23.651Z,76.77
2019-04-07T21:31:23.624Z,77.15
2019-04-07T21:32:23.561Z,76.77
2019-04-07T21:33:25.563Z,76.77
2019-04-07T21:34:26.034Z,76.77
2019-04-07T21:35:23.437Z,77.15
2019-04-07T21:36:23.778Z,77.25
2019-04-07T21:37:23.330Z,77.25
2019-04-07T21:38:25.708Z,77.44
2019-04-07T21:39:29.058Z,76.86
2019-04-07T21:40:23.193Z,77.06
2019-04-07T21:41:23.156Z,77.25
2019-04-07T21:42:23.103Z,77.34
2019-04-07T21:43:26.604Z,77.25
2019-04-07T21:44:27.025Z,77.82
2019-04-07T21:45:35.367Z,77.25
2019-04-07T21:46:24.000Z,77.72
2019-04-07T21:47:25.123Z,76.96
2019-04-07T21:48:22.826Z,77.53
2019-04-07T21:49:22.860Z,77.92
2019-04-07T21:50:24.472Z,78.20
2019-04-07T21:51:23.626Z,78.39
2019-04-07T21:52:24.480Z,78.11
2019-04-07T21:53:26.108Z,78.11
2019-04-07T21:54:22.683Z,78.39
2019-04-07T21:55:23.346Z,78.68
2019-04-07T21:56:22.459Z,78.78
2019-04-07T21:57:22.425Z,78.68
2019-04-07T21:58:24.892Z,78.78
2019-04-07T21:59:26.739Z,78.68
2019-04-07T22:00:22.273Z,78.45
2019-04-07T22:01:23.013Z,79.88
2019-04-07T22:02:22.184Z,79.50
2019-04-07T22:03:23.642Z,79.12
2019-04-07T22:04:25.329Z,79.22
2019-04-07T22:05:24.039Z,79.50
2019-04-07T22:06:22.013Z,79.50
2019-04-07T22:07:22.053Z,79.88
2019-04-07T22:08:21.914Z,79.79
2019-04-07T22:09:23.093Z,80.17
2019-04-07T22:10:22.904Z,80.55
2019-04-07T22:11:25.413Z,80.55
2019-04-07T22:12:25.642Z,80.27
2019-04-07T22:13:21.757Z,80.36
2019-04-07T22:14:21.625Z,80.93
2019-04-07T22:15:22.516Z,79.98
2019-04-07T22:16:23.943Z,80.27
2019-04-07T22:17:21.487Z,79.98
2019-04-07T22:18:21.623Z,80.46
2019-04-07T22:19:21.427Z,80.74
2019-04-07T22:20:21.685Z,80.84
2019-04-07T22:21:22.270Z,81.03
2019-04-07T22:22:21.256Z,80.90
2019-04-07T22:23:21.592Z,81.22
2019-04-07T22:24:21.908Z,80.99
2019-04-07T22:25:21.117Z,81.09
2019-04-07T22:26:21.069Z,80.70
2019-04-07T22:27:24.520Z,81.56
2019-04-07T22:28:20.978Z,81.37
2019-04-07T22:29:20.932Z,81.76
2019-04-07T22:30:20.887Z,81.85
2019-04-07T22:31:20.837Z,82.14
2019-04-07T22:32:22.791Z,81.95
2019-04-07T22:33:25.297Z,82.71
2019-04-07T22:34:20.895Z,82.32
2019-04-07T22:35:21.028Z,83.09
2019-04-07T22:36:20.607Z,82.90
2019-04-07T22:37:22.089Z,83.57
2019-04-07T22:38:23.267Z,83.86
2019-04-07T22:39:20.607Z,84.23
2019-04-07T22:40:21.297Z,83.95
2019-04-07T22:41:20.374Z,84.14
2019-04-07T22:42:20.326Z,84.77
2019-04-07T22:43:21.167Z,84.67
2019-04-07T22:44:21.948Z,85.05
2019-04-07T22:45:25.133Z,85.15
2019-04-07T22:46:24.537Z,85.15
2019-04-07T22:47:22.296Z,85.25
2019-04-07T22:48:22.790Z,85.53
2019-04-07T22:49:20.003Z,85.72
2019-04-07T22:50:19.954Z,85.72
2019-04-07T22:51:20.879Z,86.30
2019-04-07T22:52:20.561Z,85.63
2019-04-07T22:53:23.233Z,85.82
2019-04-07T22:54:19.767Z,86.01
2019-04-07T22:55:20.764Z,86.01
2019-04-07T22:56:20.336Z,86.10
2019-04-07T22:57:19.778Z,86.30
2019-04-07T22:58:20.141Z,86.30
2019-04-07T22:59:19.699Z,86.87
2019-04-07T23:00:19.487Z,87.15
2019-04-07T23:01:19.443Z,87.87
2019-04-07T23:02:20.008Z,87.68
2019-04-07T23:03:19.665Z,87.82
2019-04-07T23:04:20.248Z,87.92
2019-04-07T23:05:19.257Z,87.97
2019-04-07T23:06:19.207Z,87.59
2019-04-07T23:07:20.118Z,87.97
2019-04-07T23:08:19.114Z,88.01
2019-04-07T23:09:19.069Z,88.45
2019-04-07T23:10:19.753Z,88.73
2019-04-07T23:11:18.979Z,88.64
2019-04-07T23:12:18.996Z,89.12
2019-04-07T23:13:19.613Z,88.83
2019-04-07T23:14:19.839Z,89.59
2019-04-07T23:15:18.804Z,89.50
2019-04-07T23:16:19.314Z,89.78
2019-04-07T23:17:19.452Z,89.97
2019-04-07T23:18:18.644Z,90.17
2019-04-07T23:19:18.597Z,90.45
2019-04-07T23:20:19.929Z,90.55
2019-04-07T23:21:19.217Z,90.55
2019-04-07T23:22:18.458Z,90.55
2019-04-07T23:23:18.411Z,90.55
2019-04-07T23:24:19.226Z,90.83
2019-04-07T23:25:18.321Z,91.02
2019-04-07T23:26:18.268Z,90.88
2019-04-07T23:27:18.223Z,90.83
2019-04-07T23:28:18.823Z,90.88
2019-04-07T23:29:18.129Z,90.73
2019-04-07T23:30:18.080Z,91.02
2019-04-07T23:31:18.035Z,90.69
2019-04-07T23:32:17.997Z,90.73
2019-04-07T23:33:18.107Z,90.73
2019-04-07T23:34:17.891Z,90.50
2019-04-07T23:35:17.845Z,91.31
2019-04-07T23:36:18.004Z,90.69
2019-04-07T23:37:18.463Z,91.07
2019-04-07T23:38:17.809Z,90.88
2019-04-07T23:39:18.145Z,91.21
2019-04-07T23:40:18.344Z,90.88
2019-04-07T23:41:18.115Z,90.98
2019-04-07T23:42:17.516Z,91.46
2019-04-07T23:43:17.485Z,91.74
2019-04-07T23:44:17.421Z,91.64
2019-04-07T23:45:17.375Z,91.74
2019-04-07T23:46:23.166Z,91.55
2019-04-07T23:47:17.427Z,91.93
2019-04-07T23:48:17.987Z,91.74
2019-04-07T23:49:18.918Z,92.03
2019-04-07T23:50:17.140Z,91.93
2019-04-07T23:51:17.091Z,91.83
2019-04-07T23:52:17.046Z,92.60
2019-04-07T23:53:17.216Z,92.12
2019-04-07T23:54:16.949Z,92.41
2019-04-07T23:55:17.177Z,92.60
2019-04-07T23:56:17.645Z,92.79
2019-04-07T23:57:17.666Z,92.88
2019-04-07T23:58:16.876Z,92.69
2019-04-07T23:59:16.922Z,92.60
